Historyczne dane pomiarowe

Dodano dane terminowe – wersja testowa.

Dane z okresu 1951-2019

Wersja bazy: 1.34 [2019-03-16, lista zmian], aktualizacja planowana na 2019-04-15

Dane meteo z obszaru Polski uzyskane na podstawie danych udostępnionych przez Instytut Meteorologii i Gospodarki Wodnej – Państwowy Instytut Badawczy.

 

Wybierz Datę:    

       

TemperaturaWilgotnośćZachmurzenieWiatrCiśnienieWidzialnośćZjawiska
 Data    tng td wb rh cc ccl cl cm ch dir g1 g2 mslp ppp      
1999-07-11 00:00:00 18.3--- 12.0 14.667wxwxwx3wx--1022.2 999.4 0.0---wx
1999-07-11 01:00:00 17.3--- 12.2 14.372wxwxwx4wx--1021.7 998.9----wx
1999-07-11 02:00:00 16.5--- 11.5 13.672wxwxwx4wx--1021.6 998.7----wx
1999-07-11 03:00:00 16.0--- 10.9 13.172wxwxwxwx4wx--1021.5 998.6----wx
1999-07-11 04:00:00 16.0--- 11.3 13.374wxwxwx4wx--1021.6 998.7----wx
1999-07-11 05:00:00 17.1--- 12.2 14.273wxwxwx3wx--1021.5 998.6----wx
1999-07-11 06:00:00 18.8--- 11.5 14.562wxwxwx4wx--1021.2 998.5 0.0---wx
1999-07-11 07:00:00 20.4--- 12.0 15.459wxwxwx5wx--1021.0 998.4----wx
1999-07-11 08:00:00 21.6--- 12.9 16.358wxwxwx4wx--1020.7 998.2----wx
1999-07-11 09:00:00 21.9--- 13.1 16.557wxwxwx4wx--1020.6 998.1----wx
1999-07-11 10:00:00 23.3--- 13.8 17.455wxwxwx4wx--1020.4 998.0----wx
1999-07-11 11:00:00 24.3--- 13.9 17.852wxwxwx4wx--1020.2 997.9----wx
1999-07-11 12:00:00 23.8--- 13.3 17.352wxwxwx3wx--1020.1 997.8 0.0---wx
1999-07-11 13:00:00 23.9--- 14.2 17.854wxwxwx3wx--1019.8 997.5----wx
1999-07-11 14:00:00 23.9--- 14.7 18.156wxwxwx4wx--1019.4 997.1----wx
1999-07-11 15:00:00 24.7--- 15.1 18.655wxwxwxwxwx3wx--1018.6 996.4----wx
1999-07-11 16:00:00 24.3--- 15.0 18.456wxwxwxwx3wx--1018.4 996.2----wx
1999-07-11 17:00:00 23.5--- 15.2 18.260wxwxwxwx2wx--1018.8 996.5----wx
1999-07-11 18:00:00 23.1--- 15.4 18.262wxwxwxwxwx2wx--1018.5 996.2 0.0---wx
1999-07-11 19:00:00 22.0--- 15.7 18.068wxwxwxwx2wx--1018.7 996.3----wx
1999-07-11 20:00:00 20.5--- 16.6 18.078wxwxwx2wx--1019.1 996.6----wx
1999-07-11 21:00:00 21.4--- 16.8 18.475wxwxwx2wx--1019.0 996.5----wx
1999-07-11 22:00:00 21.2--- 17.0 18.577wxwxwx2wx--1019.1 996.6----wx
1999-07-11 23:00:00 21.4--- 17.1 18.676wxwxwx2wx--1018.6 996.1----wx

 

Źródłem pochodzenia danych jest Instytut Meteorologii i Gospodarki Wodnej – Państwowy Instytut Badawczy. Dane Instytutu Meteorologii i Gospodarki Wodnej – Państwowego Instytutu Badawczego zostały przetworzone.

Dane źródłowe można odnaleźć na stronie https://dane.imgw.pl